Time;durP1;ratioP1;P1;durP2;ratioP2;P2;SDS_P1;SDS_P2;PMS_P1;PMS_P2;Temp;Humidity;BMP_temperature;BMP_pressure;BME280_temperature;BME280_humidity;BME280_pressure;Samples;Min_cycle;Max_cycle;Signal;HPM_P1;HPM_P2
2022/05/15 00:02:29;;;;;;;20.95;8.85;;;;;;;10.74;98.41;101286.72;5200246;28;20121;-77
2022/05/15 00:04:59;;;;;;;25.27;9.15;;;;;;;10.82;96.63;101279.56;5194518;28;20112;-77
2022/05/15 00:07:30;;;;;;;44.55;19.20;;;;;;;10.67;99.02;101282.56;5191379;28;20357;-77
2022/05/15 00:10:02;;;;;;;39.05;16.92;;;;;;;10.55;100.00;101282.84;5194381;28;20033;-77
2022/05/15 00:12:32;;;;;;;68.28;29.15;;;;;;;10.41;99.07;101285.81;5191237;28;20030;-77
2022/05/15 00:15:03;;;;;;;190.07;76.27;;;;;;;10.40;98.71;101285.81;5195236;28;20037;-77
2022/05/15 00:17:33;;;;;;;45.75;18.40;;;;;;;10.14;100.00;101290.81;5191644;28;20272;-77
2022/05/15 00:20:04;;;;;;;11.93;4.27;;;;;;;9.93;100.00;101291.22;5191259;28;20377;-77
2022/05/15 00:22:37;;;;;;;10.55;3.47;;;;;;;10.00;100.00;101292.81;5186039;28;20326;-77
2022/05/15 00:25:08;;;;;;;13.70;3.85;;;;;;;10.17;100.00;101290.72;5190353;28;20584;-77
2022/05/15 00:27:38;;;;;;;11.65;3.83;;;;;;;10.38;98.97;101292.84;5190472;28;20025;-77
2022/05/15 00:30:09;;;;;;;10.60;3.10;;;;;;;10.35;96.35;101285.94;5196564;28;20029;-77
2022/05/15 00:32:39;;;;;;;11.18;3.42;;;;;;;10.06;97.42;101290.09;5196844;28;20284;-77
2022/05/15 00:35:11;;;;;;;10.80;3.65;;;;;;;9.93;100.00;101291.22;5194004;28;20021;-77
2022/05/15 00:37:41;;;;;;;11.95;3.25;;;;;;;9.74;100.00;101295.13;5190797;28;20021;-77
2022/05/15 00:40:16;;;;;;;9.68;3.35;;;;;;;9.66;100.00;101291.81;5193345;28;20091;-77
2022/05/15 00:42:47;;;;;;;18.73;7.23;;;;;;;9.44;100.00;101290.50;5191696;28;20445;-77
2022/05/15 00:45:21;;;;;;;20.73;7.72;;;;;;;9.93;100.00;101289.47;5192928;28;20113;-77
2022/05/15 00:47:51;;;;;;;11.52;4.10;;;;;;;9.82;99.34;101295.84;5192047;28;20033;-77
2022/05/15 00:50:25;;;;;;;15.63;4.10;;;;;;;9.52;100.00;101296.44;5191857;28;20037;-77
2022/05/15 00:53:01;;;;;;;12.00;3.25;;;;;;;9.62;100.00;101295.38;5192626;28;20118;-77
2022/05/15 00:55:38;;;;;;;14.23;3.40;;;;;;;9.58;100.00;101293.69;5198675;28;20035;-77
2022/05/15 00:58:15;;;;;;;11.40;3.72;;;;;;;9.88;100.00;101293.94;5189780;28;20041;-77
2022/05/15 01:00:45;;;;;;;12.07;4.07;;;;;;;9.77;100.00;101288.09;5198912;28;20064;-77
2022/05/15 01:03:18;;;;;;;12.25;3.72;;;;;;;9.89;100.00;101294.78;5196740;28;20122;-77
2022/05/15 01:05:52;;;;;;;12.00;3.65;;;;;;;9.78;100.00;101296.75;5191835;28;20045;-77
2022/05/15 01:08:24;;;;;;;11.43;3.35;;;;;;;10.08;100.00;101294.41;5191376;28;20493;-77
2022/05/15 01:10:58;;;;;;;7.85;3.00;;;;;;;9.86;98.04;101293.09;5191841;28;20515;-77
2022/05/15 01:13:34;;;;;;;11.27;3.95;;;;;;;9.77;100.00;101289.81;5190885;28;20030;-77
2022/05/15 01:16:05;;;;;;;11.02;4.30;;;;;;;9.97;98.00;101290.28;5193639;28;20407;-77
2022/05/15 01:18:38;;;;;;;14.90;4.95;;;;;;;9.83;98.69;101290.56;5185643;28;20034;-77
2022/05/15 01:21:26;;;;;;;10.10;3.42;;;;;;;9.74;96.56;101289.91;5192929;28;20040;-77
2022/05/15 01:23:57;;;;;;;7.28;2.60;;;;;;;9.78;96.92;101294.16;5192592;28;20248;-77
2022/05/15 01:26:28;;;;;;;10.93;4.07;;;;;;;9.45;99.73;101293.09;5201771;28;20476;-77
2022/05/15 01:28:59;;;;;;;28.42;10.63;;;;;;;9.57;100.00;101299.81;5193645;28;20041;-77
2022/05/15 01:31:31;;;;;;;11.63;3.58;;;;;;;9.28;99.48;101289.09;5200804;28;20079;-77
2022/05/15 01:34:01;;;;;;;9.02;2.97;;;;;;;9.04;100.00;101289.53;5193917;28;20025;-77
2022/05/15 01:36:32;;;;;;;10.93;3.05;;;;;;;8.93;100.00;101299.28;5189919;28;20167;-77
2022/05/15 01:39:04;;;;;;;8.25;2.85;;;;;;;9.02;100.00;101299.13;5192841;28;20052;-77
2022/05/15 01:41:35;;;;;;;9.70;2.78;;;;;;;8.85;100.00;101295.97;5189189;28;20353;-77
2022/05/15 01:44:05;;;;;;;7.07;2.83;;;;;;;9.05;100.00;101295.63;5192877;28;20032;-77
2022/05/15 01:46:35;;;;;;;11.88;2.90;;;;;;;8.80;100.00;101297.81;5185236;28;20025;-77
2022/05/15 01:49:06;;;;;;;11.63;3.13;;;;;;;8.70;100.00;101301.44;5192393;28;20360;-77
2022/05/15 01:51:41;;;;;;;8.60;2.95;;;;;;;8.74;100.00;101290.06;5188938;28;20076;-77
2022/05/15 01:54:12;;;;;;;11.85;3.05;;;;;;;8.87;100.00;101290.75;5192582;28;20037;-77
2022/05/15 01:56:42;;;;;;;12.65;3.17;;;;;;;8.93;100.00;101290.63;5200847;28;20388;-77
2022/05/15 01:59:12;;;;;;;32.08;10.93;;;;;;;9.01;100.00;101289.59;5192749;28;20426;-77
2022/05/15 02:01:43;;;;;;;23.02;8.23;;;;;;;9.13;98.85;101296.34;5201019;28;20014;-77
2022/05/15 02:04:13;;;;;;;20.02;8.07;;;;;;;9.24;97.37;101297.84;5191954;28;20039;-77
2022/05/15 02:06:43;;;;;;;27.27;8.65;;;;;;;9.05;99.31;101296.47;5189590;28;20399;-77
2022/05/15 02:09:14;;;;;;;34.78;11.90;;;;;;;9.16;98.88;101299.75;5192689;28;20036;-77
2022/05/15 02:11:44;;;;;;;30.95;12.63;;;;;;;9.04;100.00;101297.34;5190774;28;20371;-77
2022/05/15 02:14:14;;;;;;;38.73;14.83;;;;;;;8.92;100.00;101300.16;5192701;28;20033;-77
2022/05/15 02:16:44;;;;;;;26.73;10.02;;;;;;;8.97;100.00;101298.38;5173244;28;20339;-77
2022/05/15 02:19:16;;;;;;;56.55;20.70;;;;;;;9.12;99.08;101292.00;5191427;28;20111;-77
2022/05/15 02:21:47;;;;;;;33.85;13.88;;;;;;;9.05;97.87;101299.09;5190211;28;20634;-77
2022/05/15 02:24:18;;;;;;;23.75;9.23;;;;;;;9.21;97.25;101297.91;5191617;28;20037;-77
2022/05/15 02:26:48;;;;;;;20.30;6.63;;;;;;;9.08;97.06;101287.75;5200734;28;20075;-77
2022/05/15 02:29:19;;;;;;;21.05;6.93;;;;;;;8.85;98.37;101289.88;5192433;28;20044;-77
2022/05/15 02:31:49;;;;;;;30.88;10.98;;;;;;;9.00;99.61;101293.09;5200187;28;20033;-77
2022/05/15 02:34:19;;;;;;;32.90;13.63;;;;;;;9.05;96.71;101296.47;5190608;28;20037;-77
2022/05/15 02:36:49;;;;;;;39.73;15.00;;;;;;;9.23;96.17;101289.19;5189863;28;20277;-77
2022/05/15 02:39:20;;;;;;;227.75;85.05;;;;;;;8.99;95.12;101291.38;5189831;28;20840;-77
2022/05/15 02:41:50;;;;;;;126.25;46.97;;;;;;;8.74;99.63;101295.28;5190087;28;20026;-77
2022/05/15 02:44:20;;;;;;;47.55;17.52;;;;;;;8.90;97.63;101295.91;5190699;28;20411;-77
2022/05/15 02:46:50;;;;;;;16.10;6.38;;;;;;;8.59;97.78;101300.72;5190481;28;20079;-77
2022/05/15 02:52:10;;;;;;;45.85;15.88;;;;;;;8.30;100.00;101294.25;5185022;28;20292;-77
2022/05/15 02:54:40;;;;;;;23.08;7.47;;;;;;;8.03;100.00;101297.25;5193536;28;20026;-77
2022/05/15 02:57:11;;;;;;;12.18;4.80;;;;;;;7.93;100.00;101296.50;5199314;28;20030;-77
2022/05/15 02:59:41;;;;;;;13.52;4.30;;;;;;;8.07;100.00;101304.97;5192937;28;20026;-77
2022/05/15 03:02:12;;;;;;;11.80;4.35;;;;;;;8.59;100.00;101297.28;5202921;28;20080;-77
2022/05/15 03:04:42;;;;;;;10.40;3.67;;;;;;;8.75;97.35;101299.59;5193142;28;20073;-77
2022/05/15 03:07:13;;;;;;;8.98;3.60;;;;;;;8.47;99.38;101300.94;5195432;28;20235;-77
2022/05/15 03:09:43;;;;;;;9.82;3.35;;;;;;;8.72;97.16;101301.41;5192623;28;20041;-77
2022/05/15 03:12:14;;;;;;;8.75;3.20;;;;;;;8.57;97.93;101302.50;5195083;28;20037;-77
2022/05/15 03:14:44;;;;;;;9.18;3.45;;;;;;;8.25;98.31;101296.91;5194010;28;20028;-77
2022/05/15 03:17:16;;;;;;;7.78;2.78;;;;;;;8.00;100.00;101300.72;5194689;28;20384;-77
2022/05/15 03:19:47;;;;;;;8.32;3.10;;;;;;;7.95;100.00;101299.06;5193745;28;20032;-77
2022/05/15 03:22:17;;;;;;;9.10;2.72;;;;;;;7.97;100.00;101302.50;5194343;28;20029;-77
2022/05/15 03:24:47;;;;;;;10.70;3.03;;;;;;;8.03;100.00;101307.66;5197387;28;20507;-77
2022/05/15 03:27:17;;;;;;;5.57;2.77;;;;;;;8.05;100.00;101306.72;5202118;28;20029;-77
2022/05/15 03:29:48;;;;;;;7.97;2.78;;;;;;;8.31;100.00;101304.66;5197548;28;20287;-77
2022/05/15 03:32:18;;;;;;;10.05;2.72;;;;;;;8.37;99.85;101307.16;5201230;28;20046;-77
2022/05/15 03:34:49;;;;;;;9.17;2.60;;;;;;;8.38;100.00;101301.06;5194124;28;20026;-77
2022/05/15 03:37:19;;;;;;;6.95;2.60;;;;;;;8.31;100.00;101302.06;5194225;28;20347;-77
2022/05/15 03:39:49;;;;;;;8.02;2.70;;;;;;;8.13;100.00;101304.91;5193627;28;20112;-77
2022/05/15 03:42:19;;;;;;;8.18;2.58;;;;;;;8.09;100.00;101302.34;5193616;28;20036;-77
2022/05/15 03:44:50;;;;;;;4.68;2.20;;;;;;;7.91;100.00;101300.84;5193994;28;20035;-77
2022/05/15 03:47:21;;;;;;;8.38;2.53;;;;;;;7.93;100.00;101306.03;5193738;28;20033;-77
2022/05/15 03:49:53;;;;;;;7.38;2.60;;;;;;;7.79;100.00;101308.81;5194020;28;20041;-77
2022/05/15 03:52:23;;;;;;;7.00;2.45;;;;;;;7.67;100.00;101314.19;5193017;28;20038;-77
2022/05/15 03:54:53;;;;;;;7.97;2.90;;;;;;;7.53;100.00;101313.47;5198487;28;20025;-77
2022/05/15 03:57:23;;;;;;;4.93;2.20;;;;;;;7.54;100.00;101316.94;5201137;28;20100;-77
2022/05/15 03:59:54;;;;;;;7.40;2.47;;;;;;;7.59;100.00;101323.81;5198327;28;20271;-77
2022/05/15 04:02:25;;;;;;;6.03;2.65;;;;;;;7.66;100.00;101328.06;5201062;28;20104;-77
2022/05/15 04:04:55;;;;;;;7.30;2.70;;;;;;;7.82;100.00;101324.41;5194971;28;20069;-77
2022/05/15 04:07:25;;;;;;;7.43;2.60;;;;;;;7.89;100.00;101330.38;5207380;23;20112;-77
2022/05/15 04:09:56;;;;;;;8.13;2.70;;;;;;;7.87;100.00;101333.00;5201316;28;20030;-76
2022/05/15 04:12:26;;;;;;;10.77;3.05;;;;;;;8.04;100.00;101328.44;5193772;28;20041;-77
2022/05/15 04:14:56;;;;;;;9.05;3.38;;;;;;;8.06;100.00;101334.47;5192153;28;20041;-76
2022/05/15 04:17:26;;;;;;;7.37;2.80;;;;;;;8.34;100.00;101329.78;5193397;28;20029;-76
2022/05/15 04:20:01;;;;;;;8.73;3.13;;;;;;;8.59;100.00;101328.53;5192027;28;20284;-76
2022/05/15 04:22:31;;;;;;;10.70;3.40;;;;;;;8.46;100.00;101330.47;5193551;28;20052;-77
2022/05/15 04:25:02;;;;;;;8.73;2.90;;;;;;;8.93;100.00;101346.22;5191458;28;20052;-76
2022/05/15 04:27:33;;;;;;;9.85;3.13;;;;;;;9.11;100.00;101334.63;5190496;28;20038;-77
2022/05/15 04:30:04;;;;;;;8.35;3.03;;;;;;;9.53;99.22;101339.91;5194146;28;20376;-77
2022/05/15 04:32:34;;;;;;;9.43;3.08;;;;;;;10.44;92.72;101339.72;5172713;28;20076;-77
2022/05/15 04:35:05;;;;;;;7.72;2.42;;;;;;;11.84;86.08;101333.47;5194275;28;20547;-77
2022/05/15 04:37:36;;;;;;;7.43;2.45;;;;;;;12.72;81.85;101332.50;5190555;28;20072;-77
2022/05/15 04:40:08;;;;;;;6.45;2.65;;;;;;;12.36;81.58;101335.41;5186666;28;20174;-76
2022/05/15 04:42:38;;;;;;;9.98;2.97;;;;;;;13.40;79.00;101333.69;5194186;28;20418;-77
2022/05/15 04:45:09;;;;;;;6.38;2.60;;;;;;;13.78;75.95;101328.75;5190579;28;20029;-77
2022/05/15 04:47:40;;;;;;;8.50;2.25;;;;;;;14.20;76.91;101334.22;5193481;28;20033;-76
2022/05/15 04:50:10;;;;;;;6.60;2.28;;;;;;;14.71;71.60;101345.34;5190768;28;20097;-77
2022/05/15 04:52:41;;;;;;;8.02;2.50;;;;;;;15.51;72.96;101344.56;5193142;28;20117;-77
2022/05/15 04:55:12;;;;;;;9.80;2.58;;;;;;;17.32;64.50;101335.00;5191135;28;20503;-76
2022/05/15 04:57:42;;;;;;;5.45;2.15;;;;;;;16.27;70.56;101336.69;5172604;28;20442;-77
2022/05/15 05:00:17;;;;;;;6.60;2.25;;;;;;;15.21;71.39;101339.72;5193073;28;20064;-77
2022/05/15 05:02:48;;;;;;;6.20;2.10;;;;;;;15.66;70.40;101348.28;5191160;28;20030;-77
2022/05/15 05:05:18;;;;;;;6.68;2.53;;;;;;;16.54;67.66;101346.00;5192566;28;20029;-77
2022/05/15 05:07:48;;;;;;;6.18;2.33;;;;;;;17.36;69.60;101342.72;5191336;28;20116;-77
2022/05/15 05:10:19;;;;;;;7.13;2.30;;;;;;;17.28;65.58;101347.50;5191651;28;20203;-77
2022/05/15 05:12:49;;;;;;;6.95;2.92;;;;;;;16.08;71.07;101349.88;5191800;28;20280;-77
2022/05/15 05:15:19;;;;;;;6.90;2.47;;;;;;;15.92;70.40;101348.00;5192277;28;20025;-77
2022/05/15 05:17:50;;;;;;;5.28;2.40;;;;;;;15.82;70.45;101352.84;5192154;28;20030;-77
2022/05/15 05:20:20;;;;;;;5.70;2.47;;;;;;;16.64;70.64;101349.88;5192012;28;20040;-77
2022/05/15 05:22:50;;;;;;;7.25;2.42;;;;;;;16.79;71.14;101350.03;5192759;28;21064;-77
2022/05/15 05:25:21;;;;;;;5.28;1.90;;;;;;;18.10;65.31;101344.03;5191726;28;20103;-77
2022/05/15 05:27:51;;;;;;;7.53;2.88;;;;;;;16.98;69.63;101348.19;5175198;28;20036;-77
2022/05/15 05:30:24;;;;;;;5.80;2.10;;;;;;;18.56;64.94;101349.44;5174954;28;20025;-77
2022/05/15 05:32:54;;;;;;;6.30;2.17;;;;;;;18.25;68.96;101348.50;5175536;28;20789;-77
2022/05/15 05:35:26;;;;;;;5.53;2.10;;;;;;;18.44;66.15;101346.59;5193860;28;20025;-77
2022/05/15 05:37:56;;;;;;;6.72;2.13;;;;;;;17.98;67.47;101342.09;5195518;28;20318;-77
2022/05/15 05:40:27;;;;;;;5.47;2.07;;;;;;;19.06;65.70;101337.66;5194566;28;20053;-77
2022/05/15 05:42:57;;;;;;;5.10;2.10;;;;;;;20.39;63.48;101333.00;5179342;28;20276;-78
2022/05/15 05:45:28;;;;;;;5.63;2.28;;;;;;;19.40;63.83;101333.88;5194728;28;20415;-77
2022/05/15 05:47:58;;;;;;;6.00;2.17;;;;;;;19.84;63.58;101334.72;5199298;28;20033;-78
2022/05/15 05:50:29;;;;;;;6.15;2.00;;;;;;;23.47;55.66;101319.75;5196203;28;20018;-78
2022/05/15 05:53:00;;;;;;;7.88;2.40;;;;;;;23.34;56.27;101320.84;5198124;28;20021;-77
2022/05/15 05:55:30;;;;;;;7.38;2.22;;;;;;;22.29;57.11;101327.84;5192499;28;20551;-77
2022/05/15 05:58:00;;;;;;;5.13;2.05;;;;;;;22.69;55.55;101323.03;5192453;28;20617;-77
2022/05/15 06:00:33;;;;;;;6.13;2.20;;;;;;;18.50;66.18;101348.91;5188733;28;20040;-77
2022/05/15 06:05:55;;;;;;;6.68;2.10;;;;;;;17.77;69.41;101335.25;5196827;28;20075;-77
2022/05/15 06:08:28;;;;;;;7.25;2.40;;;;;;;19.09;68.85;101336.63;5199022;28;20025;-77
2022/05/15 06:10:58;;;;;;;9.18;2.53;;;;;;;19.31;68.34;101329.97;5199108;28;20034;-77
2022/05/15 06:13:28;;;;;;;6.75;1.90;;;;;;;18.47;70.23;101333.19;5199310;28;20626;-77
2022/05/15 06:15:59;;;;;;;6.28;2.50;;;;;;;19.41;66.34;101317.91;5192438;28;20112;-77
2022/05/15 06:18:29;;;;;;;6.22;2.03;;;;;;;18.56;68.85;101330.03;5187861;28;20092;-77
2022/05/15 06:20:59;;;;;;;7.88;2.58;;;;;;;18.12;69.97;101331.59;5190255;28;20446;-77
2022/05/15 06:23:30;;;;;;;5.65;2.05;;;;;;;16.93;73.61;101329.06;5187614;28;20037;-77
2022/05/15 06:26:00;;;;;;;5.20;1.85;;;;;;;19.25;69.19;101333.00;5190264;28;20067;-77
2022/05/15 06:28:33;;;;;;;6.88;2.03;;;;;;;19.70;64.75;101326.75;5187195;28;20025;-77
2022/05/15 06:31:03;;;;;;;11.43;2.80;;;;;;;18.35;70.70;101334.72;5184212;28;20039;-77
2022/05/15 06:33:33;;;;;;;7.13;2.08;;;;;;;20.65;63.56;101327.69;5195339;28;20160;-77
2022/05/15 06:36:04;;;;;;;7.83;2.40;;;;;;;21.80;61.20;101321.63;5195994;28;20021;-77
2022/05/15 06:38:34;;;;;;;6.97;2.40;;;;;;;21.95;61.56;101320.56;5201238;28;20063;-77
2022/05/15 06:41:07;;;;;;;9.10;3.10;;;;;;;21.55;60.92;101329.59;5179204;28;20021;-77
2022/05/15 06:43:38;;;;;;;7.90;2.55;;;;;;;24.34;55.26;101320.81;5188752;28;20276;-77
2022/05/15 06:46:08;;;;;;;7.78;2.20;;;;;;;22.67;57.90;101322.31;5190388;28;20029;-78
2022/05/15 06:48:39;;;;;;;9.90;2.50;;;;;;;21.21;61.51;101319.53;5195685;28;20038;-77
2022/05/15 06:51:16;;;;;;;8.18;2.45;;;;;;;22.70;59.17;101314.09;5186589;28;20288;-77
2022/05/15 06:53:48;;;;;;;8.32;2.50;;;;;;;21.99;60.27;101325.56;5195632;28;20029;-77
2022/05/15 06:59:07;;;;;;;6.30;2.05;;;;;;;25.31;54.51;101307.28;5191431;28;20029;-78
2022/05/15 07:01:37;;;;;;;7.65;2.60;;;;;;;26.25;52.27;101307.94;5198079;28;20021;-78
2022/05/15 07:04:08;;;;;;;5.68;2.30;;;;;;;25.24;52.27;101313.28;5195979;28;20022;-77
2022/05/15 07:06:38;;;;;;;7.83;2.00;;;;;;;23.26;56.98;101328.56;5199993;28;20026;-77
2022/05/15 07:09:08;;;;;;;6.33;1.90;;;;;;;23.89;56.26;101323.63;5197531;28;20026;-77
2022/05/15 07:11:40;;;;;;;6.53;2.00;;;;;;;22.53;58.86;101323.44;5208356;28;20882;-77
2022/05/15 07:14:10;;;;;;;6.20;2.30;;;;;;;25.80;52.62;101307.44;5206443;28;20128;-78
2022/05/15 07:16:41;;;;;;;7.32;2.45;;;;;;;25.88;51.69;101310.34;5203627;28;20109;-77
2022/05/15 07:19:11;;;;;;;8.67;2.27;;;;;;;25.18;52.66;101311.97;5202524;28;20179;-77
2022/05/15 07:21:42;;;;;;;4.53;1.73;;;;;;;23.54;56.80;101309.47;5199672;28;20025;-78
2022/05/15 07:26:52;;;;;;;8.02;2.00;;;;;;;23.60;57.49;101312.53;5933387;22;20136;-76
2022/05/15 07:29:24;;;;;;;5.25;1.83;;;;;;;24.74;55.52;101308.59;5186262;28;20109;-76
2022/05/15 07:31:56;;;;;;;5.43;2.03;;;;;;;25.67;54.05;101303.28;5194067;28;20045;-76
2022/05/15 07:34:27;;;;;;;4.95;1.90;;;;;;;26.84;51.20;101299.78;5193944;28;20550;-76
2022/05/15 07:36:57;;;;;;;4.47;1.98;;;;;;;26.85;51.92;101292.56;5195103;28;20033;-74
2022/05/15 07:39:27;;;;;;;5.50;1.90;;;;;;;23.64;56.30;101310.44;5195240;28;20051;-74
2022/05/15 07:41:58;;;;;;;7.40;1.80;;;;;;;26.70;50.80;101296.63;5232131;22;20532;-77
2022/05/15 07:44:28;;;;;;;7.80;2.23;;;;;;;28.09;47.58;101290.53;5222640;28;20449;-77
2022/05/15 07:46:58;;;;;;;5.72;1.90;;;;;;;26.15;51.40;101302.53;5214960;28;20037;-77
2022/05/15 07:49:30;;;;;;;6.20;2.00;;;;;;;28.03;49.68;101291.09;5219448;28;20083;-77
2022/05/15 07:52:00;;;;;;;5.10;1.90;;;;;;;25.60;53.84;101304.78;5214957;28;20062;-77
2022/05/15 07:54:33;;;;;;;4.88;1.67;;;;;;;25.16;53.58;101302.34;5218172;28;20577;-77
2022/05/15 07:57:03;;;;;;;5.30;1.73;;;;;;;26.03;51.38;101297.44;5218963;28;20056;-77
2022/05/15 07:59:34;;;;;;;7.88;1.80;;;;;;;26.22;51.27;101297.50;5214632;28;20068;-77
2022/05/15 08:02:06;;;;;;;5.25;1.70;;;;;;;26.59;50.45;101285.19;5210099;28;20028;-77
2022/05/15 08:08:00;;;;;;;5.85;1.90;;;;;;;27.63;48.36;101290.53;5194013;28;20358;-77
2022/05/15 08:10:16;;;;;;;6.97;2.10;;;;;;;26.14;51.47;101300.00;5203405;28;20165;-77
2022/05/15 08:12:46;;;;;;;6.68;2.03;;;;;;;28.25;47.59;101282.63;5210011;28;20546;-77
2022/05/15 08:15:17;;;;;;;7.77;2.00;;;;;;;29.56;44.81;101273.72;5210423;28;20573;-77
2022/05/15 08:17:47;;;;;;;7.13;2.00;;;;;;;31.11;43.45;101270.25;5212710;28;20497;-76
2022/05/15 08:25:55;;;;;;;4.28;1.60;;;;;;;27.09;46.99;101282.25;5208109;28;20048;-76
2022/05/15 08:28:25;;;;;;;8.60;2.10;;;;;;;27.78;46.00;101279.19;5209526;28;20033;-76
2022/05/15 08:30:56;;;;;;;5.43;2.20;;;;;;;30.08;43.64;101264.59;5211316;28;20048;-77
2022/05/15 08:33:26;;;;;;;5.35;1.80;;;;;;;30.58;42.56;101262.75;5210126;28;20037;-77
2022/05/15 08:35:57;;;;;;;4.13;1.67;;;;;;;25.99;50.08;101277.25;5212506;28;20474;-74
2022/05/15 08:38:28;;;;;;;6.32;2.00;;;;;;;27.90;46.91;101269.94;5199523;28;20581;-76
2022/05/15 08:41:11;;;;;;;6.25;1.92;;;;;;;28.59;45.61;101271.13;5196873;28;20141;-76
2022/05/15 08:44:10;;;;;;;6.20;1.80;;;;;;;29.03;44.64;101264.88;5197181;28;20032;-77
2022/05/15 08:46:49;;;;;;;8.50;2.03;;;;;;;27.97;45.17;101279.09;5202568;28;20031;-77
2022/05/15 08:49:35;;;;;;;6.82;1.90;;;;;;;25.79;49.32;101288.81;5212295;28;20035;-77
2022/05/15 08:52:15;;;;;;;7.13;2.08;;;;;;;28.00;47.43;101269.91;5213434;28;20482;-77
2022/05/15 08:54:53;;;;;;;6.53;1.90;;;;;;;29.19;44.49;101273.91;5205870;28;20041;-77
2022/05/15 08:57:51;;;;;;;7.72;1.90;;;;;;;27.00;47.25;101272.34;5190298;28;20103;-77
2022/05/15 09:00:31;;;;;;;5.88;1.75;;;;;;;27.59;46.84;101275.69;5208392;28;20038;-77
2022/05/15 09:03:21;;;;;;;6.88;1.98;;;;;;;28.81;44.85;101278.75;5210362;28;20053;-77
2022/05/15 09:06:01;;;;;;;6.90;1.88;;;;;;;26.65;48.68;101280.13;5209390;28;20040;-77
2022/05/15 09:08:57;;;;;;;7.50;2.10;;;;;;;26.54;48.02;101280.22;5206893;28;20025;-77
2022/05/15 09:11:41;;;;;;;6.43;2.00;;;;;;;26.55;47.44;101281.09;5207372;28;20048;-77
2022/05/15 09:14:21;;;;;;;10.00;1.95;;;;;;;25.83;49.32;101284.91;5190679;28;20105;-77
2022/05/15 09:16:54;;;;;;;9.25;2.20;;;;;;;25.73;49.59;101284.00;5208664;28;20068;-77
2022/05/15 09:19:26;;;;;;;8.02;2.35;;;;;;;25.75;49.89;101282.03;5199512;28;20040;-77
2022/05/15 09:21:59;;;;;;;8.18;1.92;;;;;;;27.55;47.71;101267.06;5183506;28;20040;-77
2022/05/15 09:24:39;;;;;;;6.13;1.80;;;;;;;28.33;47.21;101270.16;5204371;28;20516;-77
2022/05/15 09:27:22;;;;;;;6.38;2.20;;;;;;;27.33;46.88;101272.78;5210899;28;20568;-77
2022/05/15 09:30:00;;;;;;;6.47;2.00;;;;;;;26.60;48.77;101268.09;5191041;28;20604;-77
2022/05/15 09:32:44;;;;;;;4.53;1.60;;;;;;;30.39;44.47;101261.16;5206946;28;20098;-77
2022/05/15 09:35:38;;;;;;;6.45;2.15;;;;;;;28.59;45.95;101260.38;5203275;28;20037;-76
2022/05/15 09:44:07;;;;;;;7.75;2.42;;;;;;;28.14;46.83;101259.50;5202171;28;20084;-76
2022/05/15 09:46:40;;;;;;;9.27;2.70;;;;;;;26.43;48.14;101260.69;5201156;28;20041;-77
2022/05/15 09:49:24;;;;;;;7.13;2.55;;;;;;;27.08;48.52;101265.28;5186053;28;20024;-74
2022/05/15 09:51:58;;;;;;;11.57;2.45;;;;;;;26.70;48.87;101264.44;5201871;28;20033;-77
2022/05/15 09:54:34;;;;;;;8.45;2.65;;;;;;;26.27;49.47;101273.78;5209705;28;20344;-77
2022/05/15 09:57:25;;;;;;;7.55;2.30;;;;;;;24.22;51.78;101273.69;5206042;28;20420;-77
2022/05/15 09:59:55;;;;;;;8.30;2.38;;;;;;;23.92;52.52;101265.47;5205020;28;20037;-76
2022/05/15 10:02:47;;;;;;;9.20;2.30;;;;;;;25.12;50.34;101263.44;5205495;28;20531;-76
2022/05/15 10:05:26;;;;;;;8.10;2.47;;;;;;;24.11;51.93;101262.16;5202299;28;20470;-77
2022/05/15 10:08:10;;;;;;;8.93;2.22;;;;;;;23.30;52.45;101266.84;5205770;28;20037;-77
2022/05/15 10:10:53;;;;;;;9.93;2.42;;;;;;;22.82;52.68;101265.19;5199548;28;20039;-76
2022/05/15 10:13:40;;;;;;;8.63;2.47;;;;;;;22.79;54.06;101268.09;5206859;28;20071;-76
2022/05/15 10:16:17;;;;;;;8.55;2.15;;;;;;;22.75;54.27;101266.63;5202283;28;20083;-73
2022/05/15 10:18:56;;;;;;;7.88;2.33;;;;;;;22.75;52.52;101258.63;5191370;28;20112;-76
2022/05/15 10:21:47;;;;;;;13.02;2.50;;;;;;;22.76;55.17;101257.66;5217103;28;20032;-76
2022/05/15 10:24:23;;;;;;;8.98;2.17;;;;;;;23.00;53.80;101253.13;5205153;28;20035;-76
2022/05/15 10:27:10;;;;;;;6.38;1.85;;;;;;;23.38;54.12;101251.06;5216889;28;20572;-76
2022/05/15 10:29:49;;;;;;;6.90;2.03;;;;;;;23.06;54.57;101254.50;5183999;28;20119;-76
2022/05/15 10:32:36;;;;;;;6.95;2.10;;;;;;;22.74;54.54;101248.94;5188706;28;20124;-75
2022/05/15 10:35:14;;;;;;;7.47;1.95;;;;;;;22.80;53.15;101251.13;5201263;28;20037;-75
2022/05/15 10:37:57;;;;;;;8.98;2.10;;;;;;;22.78;54.62;101249.53;5189538;28;20151;-75
2022/05/15 10:40:43;;;;;;;8.55;2.40;;;;;;;23.30;54.11;101240.16;5207606;28;20071;-75
2022/05/15 10:43:28;;;;;;;7.05;2.10;;;;;;;23.23;54.69;101227.41;5203805;28;20064;-75
2022/05/15 10:46:33;;;;;;;11.30;2.30;;;;;;;21.97;56.99;101238.75;5189937;28;20599;-75
2022/05/15 10:49:22;;;;;;;9.15;2.20;;;;;;;22.98;57.54;101239.06;5209662;28;20582;-74
2022/05/15 10:51:55;;;;;;;9.13;2.30;;;;;;;22.92;56.86;101234.22;5214678;28;20032;-75
2022/05/15 10:57:56;;;;;;;9.88;2.58;;;;;;;23.10;57.99;101222.13;5213193;28;20039;-74
2022/05/15 11:00:44;;;;;;;12.95;2.50;;;;;;;22.87;58.95;101219.53;5205467;28;20037;-75
2022/05/15 11:03:36;;;;;;;9.68;2.33;;;;;;;23.13;57.71;101226.41;5201187;28;20021;-75
2022/05/15 11:06:31;;;;;;;9.15;2.20;;;;;;;22.90;55.45;101225.50;5201979;28;20032;-75
2022/05/15 11:09:17;;;;;;;8.25;2.30;;;;;;;23.31;60.15;101216.97;5205508;28;20112;-76
2022/05/15 11:12:25;;;;;;;8.52;2.08;;;;;;;23.28;58.60;101215.41;5203458;28;20032;-76
2022/05/15 11:15:04;;;;;;;9.18;2.30;;;;;;;23.03;57.50;101202.22;5205942;28;20045;-76
2022/05/15 11:17:54;;;;;;;7.85;2.15;;;;;;;22.39;57.73;101206.38;5205122;28;20576;-76
2022/05/15 11:20:40;;;;;;;7.88;2.17;;;;;;;23.01;57.13;101206.84;5213336;28;20044;-76
2022/05/15 11:23:20;;;;;;;7.45;2.20;;;;;;;23.16;54.84;101200.34;5203965;28;20029;-74
2022/05/15 11:25:59;;;;;;;7.07;1.92;;;;;;;23.20;57.54;101196.47;5216786;28;20484;-76
2022/05/15 11:28:47;;;;;;;7.07;1.98;;;;;;;23.38;58.70;101184.34;5195226;28;20116;-76
2022/05/15 11:31:22;;;;;;;6.22;1.67;;;;;;;22.81;57.27;101194.19;5207299;28;20601;-76
2022/05/15 11:33:58;;;;;;;6.45;1.63;;;;;;;22.56;57.91;101188.16;5210259;28;20031;-76
2022/05/15 11:36:35;;;;;;;8.52;2.17;;;;;;;22.34;56.34;101184.50;5211442;28;20038;-75
2022/05/15 11:39:08;;;;;;;8.52;1.90;;;;;;;22.32;57.34;101184.63;5208310;28;20036;-75
2022/05/15 11:42:10;;;;;;;8.27;1.90;;;;;;;22.49;58.61;101186.06;5204361;28;20028;-76
2022/05/15 11:44:46;;;;;;;8.65;1.98;;;;;;;21.62;56.57;101193.38;5205507;28;20036;-74
2022/05/15 11:47:34;;;;;;;8.25;1.70;;;;;;;21.61;56.53;101185.47;5210670;28;20505;-75
2022/05/15 11:50:11;;;;;;;7.07;2.03;;;;;;;21.57;55.11;101173.34;5217316;28;20124;-75
2022/05/15 11:53:02;;;;;;;8.10;2.00;;;;;;;22.13;55.95;101170.97;5209087;28;20025;-75
2022/05/15 11:55:36;;;;;;;6.40;1.77;;;;;;;22.14;56.85;101172.69;5216605;28;20032;-75
2022/05/15 11:58:41;;;;;;;5.97;1.60;;;;;;;22.51;54.55;101160.16;5215115;28;20032;-72
2022/05/15 12:01:16;;;;;;;8.50;1.88;;;;;;;22.70;54.50;101158.66;5186934;28;20041;-74
2022/05/15 12:03:56;;;;;;;7.45;1.60;;;;;;;22.61;57.29;101154.00;5210675;28;20529;-75
2022/05/15 12:06:44;;;;;;;6.18;1.98;;;;;;;22.65;58.85;101144.81;5210679;28;20053;-75
2022/05/15 12:09:17;;;;;;;7.82;2.05;;;;;;;22.70;58.22;101148.81;5187423;28;20037;-75
2022/05/15 12:11:51;;;;;;;9.57;1.77;;;;;;;21.86;58.94;101151.69;5209972;28;20532;-75
2022/05/15 12:14:21;;;;;;;10.05;1.98;;;;;;;21.76;58.84;101150.63;5209652;28;20111;-75
2022/05/15 12:16:59;;;;;;;8.30;1.97;;;;;;;21.93;58.72;101147.59;5209784;28;20493;-75
2022/05/15 12:19:38;;;;;;;6.72;1.70;;;;;;;21.86;57.41;101158.81;5214876;28;20313;-75
2022/05/15 12:22:12;;;;;;;8.32;1.55;;;;;;;22.05;55.41;101148.53;5208218;28;20032;-76
2022/05/15 12:24:49;;;;;;;7.93;1.90;;;;;;;22.52;55.70;101141.38;5212454;28;20033;-76
2022/05/15 12:27:26;;;;;;;7.40;1.60;;;;;;;22.42;53.63;101139.53;5218117;28;20033;-75